Time;durP1;ratioP1;P1;durP2;ratioP2;P2;SDS_P1;SDS_P2;PMS_P1;PMS_P2;Temp;Humidity;BMP_temperature;BMP_pressure;BME280_temperature;BME280_humidity;BME280_pressure;Samples;Min_cycle;Max_cycle;Signal;HPM_P1;HPM_P2
2022/12/03 00:02:14;;;;;;;53.42;25.48;;;;;;;;;;5020290;28;20180;-70
2022/12/03 00:04:41;;;;;;;53.00;24.30;;;;;;;;;;5011216;28;20026;-70
2022/12/03 00:07:07;;;;;;;52.80;24.65;;;;;;;;;;5031661;28;20080;-70
2022/12/03 00:09:33;;;;;;;58.20;24.70;;;;;;;;;;5044948;28;20037;-71
2022/12/03 00:11:59;;;;;;;58.13;24.75;;;;;;;;;;5033970;28;20184;-70
2022/12/03 00:14:25;;;;;;;56.25;24.55;;;;;;;;;;5040322;28;20060;-70
2022/12/03 00:16:51;;;;;;;53.72;23.25;;;;;;;;;;5038544;28;20041;-71
2022/12/03 00:19:17;;;;;;;54.38;25.30;;;;;;;;;;5043221;28;20026;-71
2022/12/03 00:21:43;;;;;;;48.63;24.52;;;;;;;;;;5024077;28;20022;-71
2022/12/03 00:24:10;;;;;;;55.92;24.92;;;;;;;;;;5017096;28;20037;-71
2022/12/03 00:26:36;;;;;;;54.88;22.92;;;;;;;;;;5038494;28;20069;-70
2022/12/03 00:29:02;;;;;;;58.92;24.77;;;;;;;;;;5018934;28;20044;-71
2022/12/03 00:31:28;;;;;;;53.35;24.30;;;;;;;;;;5025979;28;20028;-70
2022/12/03 00:33:55;;;;;;;53.28;23.95;;;;;;;;;;4988518;28;20033;-70
2022/12/03 00:36:21;;;;;;;54.80;23.58;;;;;;;;;;5025075;28;20482;-71
2022/12/03 00:38:47;;;;;;;54.08;24.70;;;;;;;;;;5022420;28;20022;-70
2022/12/03 00:41:13;;;;;;;53.03;24.42;;;;;;;;;;5023696;28;20022;-71
2022/12/03 00:43:39;;;;;;;56.40;23.63;;;;;;;;;;5023215;28;20452;-71
2022/12/03 00:46:05;;;;;;;52.92;24.30;;;;;;;;;;5022977;28;20128;-71
2022/12/03 00:48:31;;;;;;;53.47;23.33;;;;;;;;;;5023489;28;20045;-70
2022/12/03 00:50:57;;;;;;;53.95;24.58;;;;;;;;;;5024922;28;20045;-72
2022/12/03 00:53:24;;;;;;;54.17;24.63;;;;;;;;;;5017926;28;20029;-71
2022/12/03 00:55:50;;;;;;;54.83;24.60;;;;;;;;;;5021431;28;20037;-72
2022/12/03 00:58:17;;;;;;;56.88;24.65;;;;;;;;;;5022565;28;20144;-72
2022/12/03 01:00:43;;;;;;;60.85;24.27;;;;;;;;;;5020043;28;20548;-70
2022/12/03 01:03:09;;;;;;;56.20;24.77;;;;;;;;;;5017767;28;20113;-72
2022/12/03 01:05:35;;;;;;;55.75;23.25;;;;;;;;;;5003068;28;20034;-72
2022/12/03 01:08:02;;;;;;;54.88;23.70;;;;;;;;;;5025270;28;20546;-71
2022/12/03 01:10:28;;;;;;;53.88;23.77;;;;;;;;;;4989276;28;20061;-71
2022/12/03 01:12:54;;;;;;;55.15;24.90;;;;;;;;;;5023380;28;20029;-71
2022/12/03 01:15:20;;;;;;;54.47;22.48;;;;;;;;;;5020782;28;20026;-71
2022/12/03 01:17:46;;;;;;;51.45;23.42;;;;;;;;;;5023346;28;20040;-71
2022/12/03 01:20:12;;;;;;;58.15;24.92;;;;;;;;;;5023480;28;20113;-71
2022/12/03 01:22:38;;;;;;;55.40;24.38;;;;;;;;;;5024767;28;20025;-70
2022/12/03 01:25:05;;;;;;;55.30;24.25;;;;;;;;;;5020992;28;20026;-71
2022/12/03 01:27:31;;;;;;;59.17;24.55;;;;;;;;;;5019338;28;20026;-69
2022/12/03 01:29:57;;;;;;;53.95;23.88;;;;;;;;;;5025774;28;20025;-71
2022/12/03 01:32:23;;;;;;;59.60;24.90;;;;;;;;;;5019756;28;20390;-71
2022/12/03 01:34:50;;;;;;;53.90;24.75;;;;;;;;;;5035560;28;20036;-71
2022/12/03 01:37:17;;;;;;;59.75;24.83;;;;;;;;;;5005379;28;20034;-70
2022/12/03 01:39:44;;;;;;;56.20;24.52;;;;;;;;;;5023872;28;20026;-72
2022/12/03 01:42:17;;;;;;;61.17;24.27;;;;;;;;;;5017984;28;20034;-70
2022/12/03 01:44:44;;;;;;;59.65;24.27;;;;;;;;;;5020103;28;20037;-72
2022/12/03 01:47:13;;;;;;;61.75;25.40;;;;;;;;;;5021814;28;20716;-71
2022/12/03 01:49:41;;;;;;;55.10;23.58;;;;;;;;;;5025360;28;20053;-71
2022/12/03 01:52:11;;;;;;;58.55;25.15;;;;;;;;;;5022749;28;20405;-71
2022/12/03 01:54:45;;;;;;;57.65;24.10;;;;;;;;;;5025266;28;20084;-71
2022/12/03 01:57:41;;;;;;;55.83;23.20;;;;;;;;;;5021300;28;20253;-70
2022/12/03 02:00:07;;;;;;;57.00;24.88;;;;;;;;;;4994054;28;20041;-71
2022/12/03 02:02:34;;;;;;;59.30;26.20;;;;;;;;;;5001978;28;20538;-71
2022/12/03 02:05:01;;;;;;;56.90;23.95;;;;;;;;;;5022953;28;20568;-71
2022/12/03 02:07:29;;;;;;;59.90;25.83;;;;;;;;;;5020916;28;20032;-71
2022/12/03 02:09:56;;;;;;;58.55;25.10;;;;;;;;;;5025741;28;20052;-72
2022/12/03 02:12:25;;;;;;;61.25;26.60;;;;;;;;;;5019661;28;20113;-71
2022/12/03 02:14:52;;;;;;;54.63;24.25;;;;;;;;;;5022729;28;20022;-72
2022/12/03 02:17:18;;;;;;;53.72;23.77;;;;;;;;;;5016059;28;20444;-72
2022/12/03 02:19:44;;;;;;;57.63;25.35;;;;;;;;;;5025568;28;20075;-72
2022/12/03 02:22:17;;;;;;;54.88;23.98;;;;;;;;;;5024779;28;20032;-71
2022/12/03 02:24:43;;;;;;;58.13;25.27;;;;;;;;;;5024706;28;20167;-71
2022/12/03 02:27:10;;;;;;;61.88;25.70;;;;;;;;;;5023953;28;20119;-71
2022/12/03 02:29:36;;;;;;;63.60;27.08;;;;;;;;;;5024794;28;20037;-72
2022/12/03 02:32:02;;;;;;;57.10;24.30;;;;;;;;;;5022794;28;20048;-71
2022/12/03 02:34:37;;;;;;;57.47;24.55;;;;;;;;;;5026289;28;20040;-71
2022/12/03 02:37:04;;;;;;;57.47;23.10;;;;;;;;;;5021817;28;20387;-71
2022/12/03 02:39:31;;;;;;;55.78;25.45;;;;;;;;;;5026127;28;20147;-72
2022/12/03 02:44:42;;;;;;;58.85;24.52;;;;;;;;;;5025200;28;20038;-71
2022/12/03 02:47:08;;;;;;;56.10;24.17;;;;;;;;;;5025030;28;20045;-71
2022/12/03 02:49:34;;;;;;;52.90;24.38;;;;;;;;;;5007967;28;20099;-70
2022/12/03 02:52:00;;;;;;;52.88;24.15;;;;;;;;;;5005037;28;20536;-71
2022/12/03 02:54:26;;;;;;;52.08;23.60;;;;;;;;;;5027096;28;20037;-71
2022/12/03 02:56:52;;;;;;;60.13;26.08;;;;;;;;;;5021637;28;20116;-71
2022/12/03 02:59:19;;;;;;;53.65;23.10;;;;;;;;;;5005624;28;20482;-71
2022/12/03 03:01:45;;;;;;;57.75;24.95;;;;;;;;;;5028578;28;20091;-71
2022/12/03 03:04:11;;;;;;;55.20;24.58;;;;;;;;;;5023786;28;20056;-71
2022/12/03 03:06:37;;;;;;;58.92;24.33;;;;;;;;;;5024188;28;20498;-71
2022/12/03 03:09:03;;;;;;;51.33;23.65;;;;;;;;;;5021689;28;20040;-71
2022/12/03 03:11:29;;;;;;;57.95;24.65;;;;;;;;;;5028090;28;20068;-71
2022/12/03 03:13:56;;;;;;;55.53;23.98;;;;;;;;;;5006476;28;20129;-71
2022/12/03 03:16:22;;;;;;;57.53;23.92;;;;;;;;;;5028538;28;20253;-72
2022/12/03 03:18:48;;;;;;;57.30;23.80;;;;;;;;;;5025061;28;20025;-72
2022/12/03 03:21:14;;;;;;;56.13;26.05;;;;;;;;;;5023904;28;20037;-71
2022/12/03 03:23:40;;;;;;;53.53;23.80;;;;;;;;;;5021112;28;20030;-72
2022/12/03 03:26:11;;;;;;;63.72;25.98;;;;;;;;;;5025685;28;20033;-72
2022/12/03 03:28:38;;;;;;;56.70;24.52;;;;;;;;;;5020120;28;20517;-72
2022/12/03 03:31:06;;;;;;;51.78;23.60;;;;;;;;;;5007315;28;20407;-72
2022/12/03 03:33:32;;;;;;;55.10;24.13;;;;;;;;;;5023467;28;20063;-72
2022/12/03 03:35:59;;;;;;;54.55;23.73;;;;;;;;;;5023709;28;20033;-72
2022/12/03 03:38:25;;;;;;;52.85;24.05;;;;;;;;;;5005470;28;20493;-72
2022/12/03 03:40:52;;;;;;;52.88;24.35;;;;;;;;;;5025541;28;20028;-72
2022/12/03 03:43:19;;;;;;;55.40;25.70;;;;;;;;;;5022643;28;20169;-72
2022/12/03 03:45:45;;;;;;;55.53;24.23;;;;;;;;;;5022868;28;20048;-71
2022/12/03 03:48:12;;;;;;;54.70;24.25;;;;;;;;;;5015669;28;20033;-72
2022/12/03 03:50:38;;;;;;;54.15;24.95;;;;;;;;;;5008886;28;20018;-72
2022/12/03 03:53:04;;;;;;;50.90;23.20;;;;;;;;;;5018482;28;20056;-72
2022/12/03 03:55:31;;;;;;;55.13;24.00;;;;;;;;;;5027042;28;20083;-73
2022/12/03 03:57:57;;;;;;;56.30;23.88;;;;;;;;;;4986856;28;20045;-72
2022/12/03 04:00:24;;;;;;;56.67;24.73;;;;;;;;;;5006174;28;20026;-72
2022/12/03 04:02:51;;;;;;;56.83;25.85;;;;;;;;;;5020810;28;20304;-72
2022/12/03 04:05:18;;;;;;;56.97;24.92;;;;;;;;;;5027173;28;20045;-72
2022/12/03 04:07:45;;;;;;;55.45;24.17;;;;;;;;;;5005855;28;20049;-72
2022/12/03 04:12:56;;;;;;;57.30;24.48;;;;;;;;;;5020732;28;20045;-72
2022/12/03 04:15:22;;;;;;;53.08;24.17;;;;;;;;;;5009225;28;20029;-71
2022/12/03 04:18:41;;;;;;;58.08;25.45;;;;;;;;;;5023942;28;20026;-70
2022/12/03 04:20:35;;;;;;;58.15;25.92;;;;;;;;;;5022950;28;20718;-71
2022/12/03 04:23:01;;;;;;;58.80;26.42;;;;;;;;;;5022056;28;20386;-71
2022/12/03 04:30:58;;;;;;;56.92;25.35;;;;;;;;;;5023405;28;20446;-71
2022/12/03 04:36:09;;;;;;;57.97;25.75;;;;;;;;;;5026242;28;20033;-71
2022/12/03 04:38:35;;;;;;;60.35;25.85;;;;;;;;;;5022049;28;20107;-71
2022/12/03 04:41:05;;;;;;;55.25;24.50;;;;;;;;;;5005832;28;20034;-72
2022/12/03 04:43:32;;;;;;;55.33;25.90;;;;;;;;;;5024696;28;20018;-71
2022/12/03 04:45:59;;;;;;;57.20;26.55;;;;;;;;;;5021608;28;20037;-72
2022/12/03 04:48:25;;;;;;;51.38;24.58;;;;;;;;;;5019113;28;20119;-71
2022/12/03 04:50:51;;;;;;;55.72;24.67;;;;;;;;;;5025128;28;20459;-71
2022/12/03 04:53:18;;;;;;;63.38;27.80;;;;;;;;;;5016610;28;20026;-71
2022/12/03 04:55:44;;;;;;;59.70;27.45;;;;;;;;;;5022015;28;20025;-72
2022/12/03 04:58:10;;;;;;;64.07;27.23;;;;;;;;;;5004170;28;20451;-74
2022/12/03 05:00:36;;;;;;;63.95;28.17;;;;;;;;;;5007800;28;20029;-72
2022/12/03 05:03:03;;;;;;;55.03;25.60;;;;;;;;;;5024117;28;20525;-71
2022/12/03 05:05:29;;;;;;;57.17;26.92;;;;;;;;;;5023791;28;20467;-72
2022/12/03 05:07:55;;;;;;;61.00;26.52;;;;;;;;;;5022918;28;20025;-72
2022/12/03 05:10:21;;;;;;;70.07;28.58;;;;;;;;;;5022192;28;20030;-71
2022/12/03 05:12:47;;;;;;;63.17;27.70;;;;;;;;;;5023162;28;20125;-71
2022/12/03 05:15:13;;;;;;;61.25;28.55;;;;;;;;;;5024406;28;20033;-71
2022/12/03 05:17:39;;;;;;;61.53;28.65;;;;;;;;;;5023963;28;20041;-71
2022/12/03 05:22:51;;;;;;;61.22;28.48;;;;;;;;;;5017730;28;20041;-71
2022/12/03 05:25:17;;;;;;;60.70;27.95;;;;;;;;;;5021921;28;20029;-71
2022/12/03 05:27:43;;;;;;;66.07;28.85;;;;;;;;;;5018953;28;20044;-70
2022/12/03 05:30:09;;;;;;;60.58;26.70;;;;;;;;;;5021065;28;20119;-71
2022/12/03 05:32:35;;;;;;;62.20;27.40;;;;;;;;;;5024629;28;20022;-71
2022/12/03 05:35:02;;;;;;;64.78;29.05;;;;;;;;;;5025295;28;20029;-71
2022/12/03 05:37:28;;;;;;;63.25;28.63;;;;;;;;;;5004757;28;20040;-71
2022/12/03 05:39:54;;;;;;;70.38;31.20;;;;;;;;;;5020708;28;20065;-71
2022/12/03 05:45:05;;;;;;;69.63;30.50;;;;;;;;;;5017470;28;20037;-70
2022/12/03 05:47:32;;;;;;;69.28;30.77;;;;;;;;;;5021402;28;20160;-70
2022/12/03 05:49:58;;;;;;;64.60;29.73;;;;;;;;;;5014585;28;20336;-70
2022/12/03 05:52:24;;;;;;;75.90;30.83;;;;;;;;;;5026232;28;20025;-69
2022/12/03 05:54:50;;;;;;;65.53;30.08;;;;;;;;;;5024421;28;20136;-70
2022/12/03 05:57:16;;;;;;;66.25;28.88;;;;;;;;;;5027143;28;20038;-71
2022/12/03 05:59:42;;;;;;;59.20;27.67;;;;;;;;;;5027136;28;20080;-70
2022/12/03 06:02:08;;;;;;;64.68;29.35;;;;;;;;;;5039869;28;20406;-70
2022/12/03 06:04:35;;;;;;;63.33;29.67;;;;;;;;;;5003729;28;20048;-70
2022/12/03 06:07:01;;;;;;;65.45;30.77;;;;;;;;;;5037105;28;20030;-70
2022/12/03 06:09:27;;;;;;;71.00;30.20;;;;;;;;;;5009060;28;20343;-72
2022/12/03 06:11:53;;;;;;;62.22;27.45;;;;;;;;;;5026475;28;20098;-70
2022/12/03 06:14:20;;;;;;;65.80;29.50;;;;;;;;;;5010859;28;20108;-70
2022/12/03 06:16:46;;;;;;;64.43;29.33;;;;;;;;;;5003346;28;20521;-70
2022/12/03 06:19:12;;;;;;;66.97;29.92;;;;;;;;;;5006343;28;20159;-69
2022/12/03 06:21:38;;;;;;;67.32;30.50;;;;;;;;;;5008558;28;20474;-70
2022/12/03 06:24:05;;;;;;;63.83;29.35;;;;;;;;;;5022080;28;20216;-70
2022/12/03 06:26:33;;;;;;;59.63;28.30;;;;;;;;;;5002670;28;20041;-70
2022/12/03 06:29:00;;;;;;;62.92;29.00;;;;;;;;;;5025583;28;20037;-70
2022/12/03 06:31:26;;;;;;;61.60;29.67;;;;;;;;;;5029440;28;20182;-70
2022/12/03 06:33:52;;;;;;;65.30;29.88;;;;;;;;;;5009031;28;20106;-70
2022/12/03 06:36:18;;;;;;;64.95;28.85;;;;;;;;;;5024051;28;20049;-70
2022/12/03 06:38:44;;;;;;;66.05;30.25;;;;;;;;;;5023548;28;20037;-70
2022/12/03 06:41:10;;;;;;;68.15;29.90;;;;;;;;;;5027413;28;20060;-70
2022/12/03 06:43:36;;;;;;;70.05;30.73;;;;;;;;;;5018989;28;20095;-70
2022/12/03 06:46:03;;;;;;;69.60;29.77;;;;;;;;;;5007888;28;20056;-70
2022/12/03 06:48:29;;;;;;;62.88;30.67;;;;;;;;;;5023809;28;20025;-70
2022/12/03 06:50:55;;;;;;;68.05;30.65;;;;;;;;;;5022832;28;20390;-70
2022/12/03 06:53:21;;;;;;;69.28;30.92;;;;;;;;;;5020473;28;20034;-71
2022/12/03 06:55:47;;;;;;;74.32;32.78;;;;;;;;;;5026379;28;20045;-71
2022/12/03 06:58:13;;;;;;;73.05;32.63;;;;;;;;;;5020616;28;20025;-70
2022/12/03 07:00:39;;;;;;;68.20;30.02;;;;;;;;;;5008422;28;20041;-71
2022/12/03 07:03:05;;;;;;;64.63;30.48;;;;;;;;;;5025074;28;20111;-70
2022/12/03 07:05:31;;;;;;;68.55;32.05;;;;;;;;;;5025961;28;20021;-70
2022/12/03 07:07:58;;;;;;;65.97;30.38;;;;;;;;;;5019120;28;20544;-70
2022/12/03 07:10:24;;;;;;;69.30;30.48;;;;;;;;;;5024476;28;20108;-69
2022/12/03 07:12:50;;;;;;;64.95;28.05;;;;;;;;;;5027909;28;20045;-69
2022/12/03 07:15:16;;;;;;;64.22;30.48;;;;;;;;;;5028136;28;20371;-70
2022/12/03 07:17:42;;;;;;;70.47;31.35;;;;;;;;;;5010206;28;20081;-70
2022/12/03 07:20:09;;;;;;;63.72;29.77;;;;;;;;;;5023034;28;20037;-69
2022/12/03 07:22:35;;;;;;;63.40;29.52;;;;;;;;;;5026299;28;20431;-69
2022/12/03 07:25:01;;;;;;;65.80;28.73;;;;;;;;;;5025468;28;20022;-70
2022/12/03 07:27:27;;;;;;;60.72;28.63;;;;;;;;;;5027766;28;20029;-72
2022/12/03 07:29:54;;;;;;;64.00;29.85;;;;;;;;;;5030564;28;20125;-71
2022/12/03 07:32:20;;;;;;;58.85;28.13;;;;;;;;;;5017504;28;20041;-73
2022/12/03 07:34:46;;;;;;;60.83;29.02;;;;;;;;;;5035106;28;20215;-71
2022/12/03 07:37:12;;;;;;;62.50;29.63;;;;;;;;;;5009435;28;20481;-71
2022/12/03 07:39:39;;;;;;;62.97;30.40;;;;;;;;;;5028298;28;20034;-71
2022/12/03 07:42:08;;;;;;;62.33;30.33;;;;;;;;;;5018194;28;20084;-71
2022/12/03 07:44:34;;;;;;;62.78;28.98;;;;;;;;;;5023968;28;20207;-71
2022/12/03 07:47:00;;;;;;;61.10;28.77;;;;;;;;;;5027828;28;20029;-71
2022/12/03 07:49:26;;;;;;;62.92;29.50;;;;;;;;;;5031493;28;20037;-71
2022/12/03 07:51:53;;;;;;;56.83;27.77;;;;;;;;;;4987484;28;20036;-68
2022/12/03 07:54:23;;;;;;;60.38;28.80;;;;;;;;;;4992585;28;20050;-71
2022/12/03 07:56:49;;;;;;;61.72;29.65;;;;;;;;;;5038405;28;20124;-70
2022/12/03 07:59:15;;;;;;;59.50;28.40;;;;;;;;;;5025429;28;20117;-72
2022/12/03 08:01:41;;;;;;;71.30;31.80;;;;;;;;;;5032428;28;20079;-71
2022/12/03 08:04:08;;;;;;;68.72;30.98;;;;;;;;;;5033498;28;20064;-71
2022/12/03 08:06:34;;;;;;;64.75;29.17;;;;;;;;;;5030750;28;20103;-71
2022/12/03 08:09:00;;;;;;;62.92;29.50;;;;;;;;;;5006925;28;20049;-71
2022/12/03 08:11:28;;;;;;;62.35;28.75;;;;;;;;;;5014232;28;20405;-71
2022/12/03 08:13:55;;;;;;;62.70;28.90;;;;;;;;;;5030191;28;20040;-71
2022/12/03 08:16:22;;;;;;;67.32;30.17;;;;;;;;;;5029587;28;20150;-70
2022/12/03 08:18:48;;;;;;;63.40;29.73;;;;;;;;;;5025998;28;20045;-71
2022/12/03 08:21:16;;;;;;;65.93;29.08;;;;;;;;;;5024259;28;20060;-71
2022/12/03 08:23:43;;;;;;;60.05;27.92;;;;;;;;;;5030828;28;20037;-71
2022/12/03 08:26:19;;;;;;;58.20;27.75;;;;;;;;;;5028859;28;20041;-71
2022/12/03 08:28:45;;;;;;;58.70;27.73;;;;;;;;;;5019451;28;20446;-71
2022/12/03 08:31:24;;;;;;;59.33;27.73;;;;;;;;;;5015663;28;20042;-71
2022/12/03 08:33:52;;;;;;;58.53;28.25;;;;;;;;;;5025757;28;20139;-71
2022/12/03 08:36:21;;;;;;;53.92;25.98;;;;;;;;;;5034080;28;20030;-71
2022/12/03 08:38:49;;;;;;;58.08;26.30;;;;;;;;;;5011326;28;20026;-71
2022/12/03 08:42:40;;;;;;;51.97;24.58;;;;;;;;;;5028516;28;20089;-70
2022/12/03 08:44:28;;;;;;;53.22;25.13;;;;;;;;;;5013277;28;20034;-71
2022/12/03 08:47:13;;;;;;;58.22;26.00;;;;;;;;;;5021093;28;20080;-70
2022/12/03 08:49:39;;;;;;;57.92;25.77;;;;;;;;;;5013479;28;20111;-71
2022/12/03 08:52:16;;;;;;;54.92;25.27;;;;;;;;;;5029375;28;20269;-69
2022/12/03 08:54:43;;;;;;;59.17;26.23;;;;;;;;;;5025977;28;20056;-70
2022/12/03 08:57:29;;;;;;;58.42;26.85;;;;;;;;;;5008572;28;20030;-68
2022/12/03 09:00:06;;;;;;;57.08;27.38;;;;;;;;;;5028044;28;20108;-70
2022/12/03 09:02:33;;;;;;;57.22;26.27;;;;;;;;;;5032356;28;20009;-69
2022/12/03 09:05:13;;;;;;;57.58;26.35;;;;;;;;;;5025671;28;20029;-70
2022/12/03 09:07:39;;;;;;;57.10;26.80;;;;;;;;;;5018996;28;20042;-71
2022/12/03 09:10:05;;;;;;;57.53;27.85;;;;;;;;;;5017162;28;20025;-71
2022/12/03 09:12:32;;;;;;;63.30;27.95;;;;;;;;;;5018722;28;20050;-69
2022/12/03 09:14:58;;;;;;;64.97;28.38;;;;;;;;;;5011933;28;20164;-70
2022/12/03 09:17:29;;;;;;;68.53;29.50;;;;;;;;;;5021276;28;20029;-70
2022/12/03 09:19:55;;;;;;;69.43;29.90;;;;;;;;;;5018938;28;20124;-71
2022/12/03 09:22:21;;;;;;;78.90;33.67;;;;;;;;;;5029110;28;20022;-71
2022/12/03 09:24:47;;;;;;;81.50;34.28;;;;;;;;;;5020406;28;20552;-71
2022/12/03 09:27:14;;;;;;;72.97;31.38;;;;;;;;;;5024128;28;20486;-71
2022/12/03 09:29:40;;;;;;;70.80;31.05;;;;;;;;;;5029753;28;20091;-71
2022/12/03 09:32:06;;;;;;;74.90;31.67;;;;;;;;;;5027137;28;20052;-70
2022/12/03 09:34:33;;;;;;;73.80;32.08;;;;;;;;;;5014921;28;20037;-71
2022/12/03 09:37:00;;;;;;;71.75;30.38;;;;;;;;;;5025564;28;20047;-72
2022/12/03 09:39:26;;;;;;;72.82;32.22;;;;;;;;;;5030943;28;20034;-71
2022/12/03 09:41:52;;;;;;;76.22;31.40;;;;;;;;;;5012760;28;20100;-71
2022/12/03 09:44:18;;;;;;;81.85;33.03;;;;;;;;;;5031758;28;20034;-71
2022/12/03 09:46:45;;;;;;;72.20;31.58;;;;;;;;;;5023486;28;20092;-71
2022/12/03 09:49:13;;;;;;;74.30;30.10;;;;;;;;;;5010479;28;20056;-71
2022/12/03 09:51:39;;;;;;;79.55;31.83;;;;;;;;;;5025550;28;20047;-71
2022/12/03 09:54:06;;;;;;;71.38;29.38;;;;;;;;;;5028806;28;20037;-71
2022/12/03 09:56:36;;;;;;;78.93;32.00;;;;;;;;;;5023803;28;20022;-70
2022/12/03 09:59:05;;;;;;;80.40;32.60;;;;;;;;;;5022355;28;20021;-71
2022/12/03 10:01:31;;;;;;;87.63;33.15;;;;;;;;;;5026214;28;20021;-71
2022/12/03 10:03:58;;;;;;;83.55;33.85;;;;;;;;;;5025594;28;20464;-71
2022/12/03 10:06:24;;;;;;;75.78;31.42;;;;;;;;;;5028750;28;20056;-71
2022/12/03 10:08:53;;;;;;;75.18;33.03;;;;;;;;;;5026906;28;20029;-71
2022/12/03 10:11:21;;;;;;;89.20;33.60;;;;;;;;;;5027856;28;20033;-70
2022/12/03 10:13:47;;;;;;;77.90;31.75;;;;;;;;;;5016668;28;20490;-71
2022/12/03 10:16:14;;;;;;;75.90;32.53;;;;;;;;;;5028803;28;20075;-72
2022/12/03 10:18:46;;;;;;;81.50;31.58;;;;;;;;;;5025833;28;20118;-71
2022/12/03 10:21:34;;;;;;;76.40;31.20;;;;;;;;;;5028946;28;20180;-70
2022/12/03 10:24:19;;;;;;;76.90;31.38;;;;;;;;;;5024610;28;20037;-70
2022/12/03 10:26:46;;;;;;;75.75;31.30;;;;;;;;;;5022388;28;20037;-70
2022/12/03 10:29:13;;;;;;;80.63;33.08;;;;;;;;;;5026895;28;20037;-70
2022/12/03 10:31:39;;;;;;;81.45;33.10;;;;;;;;;;5025074;28;20376;-70
2022/12/03 10:34:05;;;;;;;76.47;33.10;;;;;;;;;;5013626;28;20026;-70
2022/12/03 10:36:32;;;;;;;84.80;33.28;;;;;;;;;;5002812;28;20044;-70
2022/12/03 10:39:09;;;;;;;75.55;29.63;;;;;;;;;;5027537;28;20413;-70
2022/12/03 10:41:37;;;;;;;77.78;30.02;;;;;;;;;;5032751;28;20425;-70
2022/12/03 10:44:11;;;;;;;79.03;29.17;;;;;;;;;;5017847;28;20218;-70
2022/12/03 10:46:37;;;;;;;72.88;27.55;;;;;;;;;;5022575;28;20129;-70
2022/12/03 10:49:08;;;;;;;76.45;29.77;;;;;;;;;;5027785;28;20418;-70
2022/12/03 10:51:34;;;;;;;79.38;28.73;;;;;;;;;;5022699;28;20066;-70
2022/12/03 10:54:02;;;;;;;73.80;27.60;;;;;;;;;;5015707;28;20117;-70
2022/12/03 10:56:28;;;;;;;82.38;29.88;;;;;;;;;;5023309;28;20451;-70
2022/12/03 10:58:54;;;;;;;77.97;27.33;;;;;;;;;;5003468;28;20037;-70
2022/12/03 11:01:22;;;;;;;80.18;28.65;;;;;;;;;;5018532;28;20763;-70
2022/12/03 11:03:48;;;;;;;77.13;28.40;;;;;;;;;;5021404;28;20030;-69
2022/12/03 11:06:16;;;;;;;68.05;26.25;;;;;;;;;;5026553;28;20250;-70
2022/12/03 11:08:44;;;;;;;68.03;26.27;;;;;;;;;;5026402;28;20095;-70
2022/12/03 11:11:17;;;;;;;73.07;26.27;;;;;;;;;;5025735;28;20037;-70
2022/12/03 11:13:44;;;;;;;69.15;26.90;;;;;;;;;;5018357;28;20041;-70
2022/12/03 11:16:10;;;;;;;71.57;26.15;;;;;;;;;;5012204;28;20030;-70
2022/12/03 11:18:36;;;;;;;72.97;26.63;;;;;;;;;;5026330;28;20118;-70
2022/12/03 11:21:04;;;;;;;70.75;27.88;;;;;;;;;;5031626;28;20440;-70
2022/12/03 11:23:45;;;;;;;64.35;23.40;;;;;;;;;;5023364;28;20014;-70
2022/12/03 11:26:18;;;;;;;67.90;26.02;;;;;;;;;;5005678;28;20061;-70
2022/12/03 11:28:47;;;;;;;64.40;24.40;;;;;;;;;;5023747;28;20045;-70
2022/12/03 11:31:32;;;;;;;71.47;25.42;;;;;;;;;;5023820;28;20071;-70
2022/12/03 11:34:19;;;;;;;66.63;24.08;;;;;;;;;;4998011;28;20052;-70
2022/12/03 11:37:03;;;;;;;70.53;26.77;;;;;;;;;;5016402;28;20037;-69
2022/12/03 11:39:45;;;;;;;67.97;25.42;;;;;;;;;;5030557;28;20061;-70
2022/12/03 11:42:26;;;;;;;74.53;27.00;;;;;;;;;;5025338;28;20036;-70
2022/12/03 11:44:52;;;;;;;;;;;;;;;;;;5027594;28;20083;-70
2022/12/03 11:47:18;;;;;;;64.72;25.05;;;;;;;;;;5029642;28;19924;-70
2022/12/03 11:49:46;;;;;;;77.70;27.27;;;;;;;;;;5030410;28;20145;-70
2022/12/03 11:52:20;;;;;;;69.78;28.90;;;;;;;;;;5027160;28;20030;-70
2022/12/03 11:54:48;;;;;;;75.25;27.58;;;;;;;;;;5028600;28;20033;-70
2022/12/03 11:57:29;;;;;;;75.05;28.23;;;;;;;;;;5027011;28;20032;-70
2022/12/03 12:00:00;;;;;;;72.95;27.05;;;;;;;;;;5018796;28;20033;-70
2022/12/03 12:02:26;;;;;;;70.03;27.77;;;;;;;;;;5016299;28;20092;-70
2022/12/03 12:04:52;;;;;;;73.35;27.40;;;;;;;;;;4994563;28;20034;-70
2022/12/03 12:07:36;;;;;;;74.65;26.95;;;;;;;;;;5015471;28;20029;-69
2022/12/03 12:10:03;;;;;;;75.45;28.15;;;;;;;;;;5017924;28;20061;-69
2022/12/03 12:12:31;;;;;;;68.85;28.77;;;;;;;;;;5030534;28;20040;-70
2022/12/03 12:14:58;;;;;;;68.13;27.13;;;;;;;;;;5030993;28;20026;-69
2022/12/03 12:17:28;;;;;;;71.28;28.70;;;;;;;;;;5027511;28;20041;-69
2022/12/03 12:20:13;;;;;;;62.73;25.83;;;;;;;;;;5025918;28;20338;-69
2022/12/03 12:22:39;;;;;;;73.68;26.75;;;;;;;;;;5021979;28;20299;-70
2022/12/03 12:25:25;;;;;;;66.40;25.27;;;;;;;;;;5010363;28;20048;-70
2022/12/03 12:27:53;;;;;;;57.42;24.10;;;;;;;;;;5025666;28;20402;-69
2022/12/03 12:30:20;;;;;;;62.80;26.02;;;;;;;;;;5026685;28;20038;-70
2022/12/03 12:32:48;;;;;;;59.85;24.27;;;;;;;;;;5020828;28;20489;-69
2022/12/03 12:35:21;;;;;;;63.35;25.10;;;;;;;;;;5029857;28;20430;-69
2022/12/03 12:37:52;;;;;;;66.32;23.85;;;;;;;;;;5026423;28;20075;-69
2022/12/03 12:40:20;;;;;;;64.47;25.40;;;;;;;;;;5025934;28;20143;-69
2022/12/03 12:42:49;;;;;;;73.40;26.23;;;;;;;;;;5020463;28;20087;-70
2022/12/03 12:45:17;;;;;;;60.83;24.00;;;;;;;;;;5026947;28;20036;-70
2022/12/03 12:47:47;;;;;;;59.72;23.60;;;;;;;;;;5016601;28;20044;-71
2022/12/03 12:50:13;;;;;;;61.33;23.55;;;;;;;;;;5010815;28;20495;-69
2022/12/03 12:52:47;;;;;;;64.82;24.17;;;;;;;;;;5035853;28;20034;-69
2022/12/03 12:55:15;;;;;;;66.93;26.05;;;;;;;;;;5021279;28;20038;-70
2022/12/03 12:57:41;;;;;;;61.33;23.92;;;;;;;;;;5014958;28;20061;-69
2022/12/03 13:00:13;;;;;;;59.78;24.08;;;;;;;;;;5027712;28;20029;-70
2022/12/03 13:02:59;;;;;;;66.82;25.45;;;;;;;;;;5019887;28;20136;-70
2022/12/03 13:05:26;;;;;;;72.68;28.42;;;;;;;;;;5023490;28;20784;-70
2022/12/03 13:07:54;;;;;;;64.32;24.50;;;;;;;;;;5007738;28;20079;-71
2022/12/03 13:10:34;;;;;;;65.28;25.75;;;;;;;;;;5025427;28;20045;-70
2022/12/03 13:13:21;;;;;;;76.33;28.37;;;;;;;;;;5025204;28;20063;-70
2022/12/03 13:15:49;;;;;;;87.75;29.35;;;;;;;;;;5026970;28;20174;-69
2022/12/03 13:18:24;;;;;;;86.30;32.00;;;;;;;;;;5022239;28;20140;-69
2022/12/03 13:20:50;;;;;;;92.10;31.33;;;;;;;;;;5016489;28;20042;-69
2022/12/03 13:23:27;;;;;;;94.20;31.58;;;;;;;;;;5023173;28;20057;-69
2022/12/03 13:25:53;;;;;;;96.45;31.90;;;;;;;;;;5027595;28;20033;-69
2022/12/03 13:28:20;;;;;;;91.25;32.67;;;;;;;;;;5018153;28;20036;-70
2022/12/03 13:30:46;;;;;;;88.63;30.13;;;;;;;;;;5026089;28;20048;-71
2022/12/03 13:33:24;;;;;;;87.13;29.55;;;;;;;;;;5023095;28;20041;-70
2022/12/03 13:35:52;;;;;;;96.22;31.40;;;;;;;;;;5026762;28;20048;-70
2022/12/03 13:38:18;;;;;;;93.47;31.65;;;;;;;;;;5025573;28;20393;-70
2022/12/03 13:40:44;;;;;;;100.72;30.35;;;;;;;;;;5027446;28;20095;-70
2022/12/03 13:43:15;;;;;;;96.07;30.27;;;;;;;;;;5023360;28;20116;-69
2022/12/03 13:45:45;;;;;;;94.47;30.83;;;;;;;;;;5025717;28;20449;-70
2022/12/03 13:48:30;;;;;;;97.45;32.60;;;;;;;;;;5025148;28;20029;-70
2022/12/03 13:50:57;;;;;;;94.60;29.00;;;;;;;;;;5026540;28;20053;-70
2022/12/03 13:53:26;;;;;;;106.65;32.38;;;;;;;;;;5025615;28;20026;-70
2022/12/03 13:56:00;;;;;;;95.00;32.72;;;;;;;;;;5026901;28;20052;-70
2022/12/03 13:58:26;;;;;;;102.47;31.48;;;;;;;;;;5022313;28;20033;-69
2022/12/03 14:00:52;;;;;;;102.85;31.75;;;;;;;;;;5021376;28;20478;-70
2022/12/03 14:03:18;;;;;;;102.25;33.25;;;;;;;;;;5023088;28;20021;-70
2022/12/03 14:05:45;;;;;;;101.63;32.80;;;;;;;;;;5026112;28;20048;-69
2022/12/03 14:08:11;;;;;;;108.25;33.65;;;;;;;;;;5025708;28;20137;-70
2022/12/03 14:10:37;;;;;;;96.32;31.45;;;;;;;;;;5026372;28;20067;-70
2022/12/03 14:13:03;;;;;;;96.65;32.63;;;;;;;;;;5027470;28;20087;-70
2022/12/03 14:15:29;;;;;;;96.38;32.28;;;;;;;;;;5011722;28;20133;-69
2022/12/03 14:17:56;;;;;;;92.75;32.13;;;;;;;;;;5026743;28;20033;-69
2022/12/03 14:20:22;;;;;;;84.10;28.52;;;;;;;;;;5030573;28;20041;-70
2022/12/03 14:22:48;;;;;;;83.40;28.40;;;;;;;;;;5030091;28;20030;-70
2022/12/03 14:25:14;;;;;;;81.82;30.65;;;;;;;;;;5026964;28;20433;-70
2022/12/03 14:27:40;;;;;;;81.32;30.13;;;;;;;;;;5028118;28;20095;-69
2022/12/03 14:30:07;;;;;;;78.85;28.08;;;;;;;;;;5027612;28;20038;-70
2022/12/03 14:32:33;;;;;;;83.57;29.45;;;;;;;;;;5029246;28;20057;-70
2022/12/03 14:34:59;;;;;;;83.13;30.00;;;;;;;;;;5028488;28;20037;-70
2022/12/03 14:37:25;;;;;;;94.93;32.00;;;;;;;;;;5030069;28;20029;-70
2022/12/03 14:39:51;;;;;;;76.32;25.67;;;;;;;;;;5031567;28;20041;-69
2022/12/03 14:42:18;;;;;;;82.00;27.50;;;;;;;;;;5026964;28;20471;-69